createdAt,value
2017-08-17T00:01:57.578Z,71.32
2017-08-17T00:04:30.657Z,71.34
2017-08-17T00:07:03.329Z,71.60
2017-08-17T00:09:34.561Z,71.70
2017-08-17T00:12:10.261Z,71.79
2017-08-17T00:14:41.720Z,71.80
2017-08-17T00:17:13.223Z,71.95
2017-08-17T00:19:44.339Z,72.12
2017-08-17T00:22:15.947Z,72.26
2017-08-17T00:24:48.975Z,72.40
2017-08-17T00:27:20.002Z,72.43
2017-08-17T00:29:51.045Z,72.43
2017-08-17T00:32:22.189Z,72.64
2017-08-17T00:34:53.272Z,72.96
2017-08-17T00:37:24.386Z,73.16
2017-08-17T00:39:56.648Z,73.00
2017-08-17T00:42:27.852Z,72.94
2017-08-17T00:45:01.027Z,73.02
2017-08-17T00:47:32.464Z,73.14
2017-08-17T00:50:07.073Z,73.19
2017-08-17T00:52:38.202Z,73.12
2017-08-17T00:55:10.150Z,73.16
2017-08-17T00:57:41.187Z,73.31
2017-08-17T01:00:13.687Z,73.25
2017-08-17T01:02:45.263Z,73.24
2017-08-17T01:05:16.318Z,73.35
2017-08-17T01:07:47.362Z,73.52
2017-08-17T01:10:19.433Z,73.82
2017-08-17T01:12:50.484Z,74.11
2017-08-17T01:15:21.582Z,74.08
2017-08-17T01:17:53.212Z,74.07
2017-08-17T01:20:24.258Z,74.12
2017-08-17T01:22:55.582Z,74.33
2017-08-17T01:25:26.704Z,74.40
2017-08-17T01:28:00.621Z,74.31
2017-08-17T01:30:31.663Z,74.04
2017-08-17T01:33:04.431Z,73.95
2017-08-17T01:35:35.492Z,73.93
2017-08-17T01:38:07.907Z,74.04
2017-08-17T01:40:38.958Z,73.99
2017-08-17T01:43:10.463Z,73.95
2017-08-17T01:45:41.482Z,73.89
2017-08-17T01:48:12.690Z,73.87
2017-08-17T01:50:43.813Z,73.85
2017-08-17T01:53:15.239Z,73.77
2017-08-17T01:55:46.271Z,73.81
2017-08-17T01:58:17.874Z,73.77
2017-08-17T02:00:49.466Z,73.85
2017-08-17T02:03:20.453Z,73.85
2017-08-17T02:05:51.826Z,73.94
2017-08-17T02:08:22.843Z,74.06
2017-08-17T02:10:53.896Z,74.20
2017-08-17T02:13:24.861Z,74.22
2017-08-17T02:15:57.636Z,74.45
2017-08-17T02:18:28.652Z,74.56
2017-08-17T02:21:00.219Z,74.64
2017-08-17T02:23:31.689Z,74.72
2017-08-17T02:26:06.353Z,75.14
2017-08-17T02:28:37.355Z,75.07
2017-08-17T02:31:08.726Z,75.03
2017-08-17T02:33:39.714Z,75.17
2017-08-17T02:36:13.326Z,75.22
2017-08-17T02:38:45.053Z,75.24
2017-08-17T02:41:16.080Z,75.36
2017-08-17T02:43:47.065Z,75.42
2017-08-17T02:46:18.122Z,75.57
2017-08-17T02:48:49.526Z,75.61
2017-08-17T02:51:20.509Z,75.88
2017-08-17T02:53:53.157Z,76.03
2017-08-17T02:58:51.703Z,76.27
2017-08-17T03:01:22.702Z,76.24
2017-08-17T03:03:54.211Z,76.29
2017-08-17T03:06:25.218Z,76.29
2017-08-17T03:08:57.420Z,76.35
2017-08-17T03:11:28.434Z,76.44
2017-08-17T03:14:02.921Z,76.49
2017-08-17T03:16:33.953Z,76.53
2017-08-17T03:19:05.407Z,76.60
2017-08-17T03:21:36.417Z,76.60
2017-08-17T03:24:07.570Z,76.49
2017-08-17T03:26:38.571Z,76.53
2017-08-17T03:29:09.899Z,76.58
2017-08-17T03:31:41.227Z,76.63
2017-08-17T03:34:13.222Z,76.78
2017-08-17T03:36:44.779Z,76.90
2017-08-17T03:39:15.773Z,77.06
2017-08-17T03:41:47.658Z,77.44
2017-08-17T03:44:19.334Z,77.48
2017-08-17T03:46:50.406Z,77.45
2017-08-17T03:49:21.660Z,77.40
2017-08-17T03:51:52.665Z,77.67
2017-08-17T03:54:23.784Z,77.85
2017-08-17T03:56:55.317Z,77.91
2017-08-17T03:59:26.521Z,78.06
2017-08-17T04:01:59.662Z,78.00
2017-08-17T04:04:31.009Z,77.93
2017-08-17T04:07:02.549Z,77.89
2017-08-17T04:09:33.537Z,78.25
2017-08-17T04:12:05.562Z,78.42
2017-08-17T04:14:37.013Z,78.50
2017-08-17T04:17:08.009Z,78.22
2017-08-17T04:19:39.004Z,78.14
2017-08-17T04:22:10.911Z,78.02
2017-08-17T04:24:41.909Z,77.97
2017-08-17T04:27:12.896Z,77.73
2017-08-17T04:29:44.256Z,77.52
2017-08-17T04:32:15.253Z,77.35
2017-08-17T04:34:46.261Z,77.16
2017-08-17T04:37:17.229Z,77.03
2017-08-17T04:39:48.786Z,76.89
2017-08-17T04:42:20.424Z,76.81
2017-08-17T04:44:51.493Z,76.63
2017-08-17T04:47:23.014Z,76.57
2017-08-17T04:49:54.077Z,76.42
2017-08-17T04:52:25.253Z,76.38
2017-08-17T04:54:57.161Z,76.05
2017-08-17T04:57:44.200Z,75.80
2017-08-17T05:00:16.178Z,75.48
2017-08-17T05:02:47.657Z,75.09
2017-08-17T05:05:18.779Z,74.78
2017-08-17T05:07:49.835Z,74.31
2017-08-17T05:10:20.906Z,73.69
2017-08-17T05:12:52.392Z,73.31
2017-08-17T05:15:23.870Z,72.94
2017-08-17T05:17:54.949Z,72.33
2017-08-17T05:20:26.335Z,71.68
2017-08-17T05:22:58.071Z,71.02
2017-08-17T05:25:29.334Z,70.46
2017-08-17T05:28:05.191Z,70.37
2017-08-17T05:30:36.495Z,70.19
2017-08-17T05:33:07.494Z,70.72
2017-08-17T05:35:38.830Z,71.00
2017-08-17T05:38:09.873Z,70.90
2017-08-17T05:40:40.881Z,71.33
2017-08-17T05:43:12.220Z,71.56
2017-08-17T05:45:43.246Z,71.39
2017-08-17T05:48:15.120Z,70.95
2017-08-17T05:50:46.137Z,70.62
2017-08-17T05:53:17.157Z,70.39
2017-08-17T05:55:48.207Z,69.96
2017-08-17T05:58:19.264Z,69.04
2017-08-17T06:00:50.347Z,68.59
2017-08-17T06:03:21.367Z,67.87
2017-08-17T06:05:52.343Z,66.99
2017-08-17T06:08:24.021Z,66.17
2017-08-17T06:10:55.240Z,65.34
2017-08-17T06:13:26.234Z,64.63
2017-08-17T06:15:58.245Z,64.09
2017-08-17T06:18:29.670Z,64.10
2017-08-17T06:21:02.478Z,64.03
2017-08-17T06:23:33.478Z,63.67
2017-08-17T06:26:05.963Z,63.50
2017-08-17T06:28:36.964Z,64.19
2017-08-17T06:31:07.972Z,63.61
2017-08-17T06:33:39.078Z,63.71
2017-08-17T06:36:11.414Z,63.85
2017-08-17T06:38:42.674Z,63.69
2017-08-17T06:41:13.703Z,64.20
2017-08-17T06:43:44.685Z,63.61
2017-08-17T06:46:16.941Z,63.07
2017-08-17T06:48:47.946Z,62.83
2017-08-17T06:51:19.571Z,63.12
2017-08-17T06:53:50.635Z,62.77
2017-08-17T06:56:22.377Z,62.97
2017-08-17T06:58:53.733Z,62.72
2017-08-17T07:01:24.779Z,62.08
2017-08-17T07:03:55.793Z,62.86
2017-08-17T07:06:27.149Z,62.09
2017-08-17T07:08:59.656Z,61.76
2017-08-17T07:11:30.738Z,62.20
2017-08-17T07:14:04.060Z,61.93
2017-08-17T07:16:35.058Z,61.10
2017-08-17T07:19:06.064Z,60.96
2017-08-17T07:21:37.365Z,60.46
2017-08-17T07:24:08.455Z,60.37
2017-08-17T07:26:39.469Z,60.27
2017-08-17T07:29:10.858Z,59.98
2017-08-17T07:31:41.843Z,60.53
2017-08-17T07:34:13.940Z,60.14
2017-08-17T07:36:44.930Z,60.06
2017-08-17T07:39:15.897Z,59.74
2017-08-17T07:41:46.929Z,59.92
2017-08-17T07:44:17.921Z,59.82
2017-08-17T07:46:49.335Z,59.25
2017-08-17T07:49:20.622Z,58.99
2017-08-17T07:51:51.863Z,57.46
2017-08-17T07:54:22.997Z,56.06
2017-08-17T07:56:54.028Z,55.23
2017-08-17T07:59:25.025Z,54.63
2017-08-17T08:01:57.277Z,53.87
2017-08-17T08:04:28.378Z,54.08
2017-08-17T08:07:01.818Z,54.59
2017-08-17T08:09:34.019Z,55.34
2017-08-17T08:12:07.883Z,55.65
2017-08-17T08:14:38.855Z,56.26
2017-08-17T08:17:10.177Z,56.48
2017-08-17T08:19:41.146Z,56.39
2017-08-17T08:22:13.085Z,55.74
2017-08-17T08:24:44.438Z,54.83
2017-08-17T08:27:15.414Z,54.47
2017-08-17T08:29:46.459Z,53.72
2017-08-17T08:32:18.329Z,53.32
2017-08-17T08:34:49.397Z,52.87
2017-08-17T08:37:20.436Z,52.43
2017-08-17T08:39:51.561Z,52.47
2017-08-17T08:42:23.150Z,52.39
2017-08-17T08:44:54.175Z,51.89
2017-08-17T08:47:25.308Z,51.15
2017-08-17T08:49:57.306Z,51.91
2017-08-17T08:52:30.289Z,52.23
2017-08-17T08:55:08.674Z,52.28
2017-08-17T08:57:39.789Z,52.40
2017-08-17T09:00:15.672Z,52.28
2017-08-17T09:02:49.185Z,52.30
2017-08-17T09:05:20.280Z,52.13
2017-08-17T09:07:52.492Z,51.48
2017-08-17T09:10:23.562Z,51.73
2017-08-17T09:13:02.441Z,51.78
2017-08-17T09:15:37.201Z,51.74
2017-08-17T09:18:10.001Z,51.76
2017-08-17T09:20:42.259Z,51.53
2017-08-17T09:23:13.729Z,53.02
2017-08-17T09:25:45.199Z,52.51
2017-08-17T09:28:19.128Z,52.47
2017-08-17T09:31:15.897Z,52.44
2017-08-17T09:33:47.030Z,51.67
2017-08-17T09:36:21.992Z,51.01
2017-08-17T09:38:53.441Z,49.28
2017-08-17T09:41:24.430Z,47.99
2017-08-17T09:43:55.590Z,46.47
2017-08-17T09:46:26.708Z,45.53
2017-08-17T09:49:02.529Z,45.60
2017-08-17T09:51:33.517Z,45.38
2017-08-17T09:54:07.519Z,44.50
2017-08-17T09:56:38.921Z,43.75
2017-08-17T09:59:09.924Z,42.87
2017-08-17T10:01:40.930Z,42.83
2017-08-17T10:04:12.317Z,43.55
2017-08-17T10:06:43.307Z,42.61
2017-08-17T10:09:14.314Z,42.65
2017-08-17T10:11:45.790Z,43.61
2017-08-17T10:14:17.868Z,43.18
2017-08-17T10:16:49.184Z,44.37
2017-08-17T10:19:20.530Z,45.48
2017-08-17T10:21:51.595Z,44.90
2017-08-17T10:24:23.549Z,44.29
2017-08-17T10:26:54.542Z,43.60
2017-08-17T10:29:25.531Z,41.86
2017-08-17T10:31:57.347Z,40.94
2017-08-17T10:34:28.725Z,39.66
2017-08-17T10:37:02.586Z,39.34
2017-08-17T10:39:33.669Z,39.61
2017-08-17T10:42:08.637Z,38.68
2017-08-17T10:44:39.946Z,38.29
2017-08-17T10:47:11.165Z,38.74
2017-08-17T10:49:42.835Z,39.12
2017-08-17T10:52:15.691Z,38.90
2017-08-17T10:54:47.002Z,38.30
2017-08-17T10:57:18.039Z,37.94
2017-08-17T10:59:49.483Z,36.51
2017-08-17T11:02:21.317Z,35.78
2017-08-17T11:04:52.598Z,36.27
2017-08-17T11:07:23.932Z,34.39
2017-08-17T11:09:55.220Z,33.45
2017-08-17T11:12:26.275Z,33.25
2017-08-17T11:15:05.035Z,33.64
2017-08-17T11:17:37.184Z,34.81
2017-08-17T11:20:10.977Z,34.94
2017-08-17T11:22:42.714Z,35.06
2017-08-17T11:25:13.904Z,34.60
2017-08-17T11:27:45.214Z,35.09
2017-08-17T11:30:19.813Z,38.15
2017-08-17T11:32:51.009Z,38.40
2017-08-17T11:35:22.331Z,37.21
2017-08-17T11:37:53.558Z,35.60
2017-08-17T11:40:25.803Z,33.49
2017-08-17T11:43:03.512Z,33.19
2017-08-17T11:45:36.816Z,34.58
2017-08-17T11:48:09.511Z,33.77
2017-08-17T11:50:41.204Z,31.28
2017-08-17T11:53:13.259Z,32.22
2017-08-17T11:58:41.382Z,33.14
2017-08-17T12:01:13.038Z,31.81
2017-08-17T12:03:44.099Z,32.96
2017-08-17T12:06:18.025Z,33.54
2017-08-17T12:08:49.094Z,36.82
2017-08-17T12:11:20.536Z,36.93
2017-08-17T12:13:51.909Z,35.81
2017-08-17T12:16:23.889Z,35.73
2017-08-17T12:18:55.311Z,34.62
2017-08-17T12:21:27.339Z,35.20
2017-08-17T12:24:04.643Z,34.91
2017-08-17T12:26:35.656Z,33.67
2017-08-17T12:29:07.338Z,34.11
2017-08-17T12:31:38.479Z,33.10
2017-08-17T12:34:12.852Z,32.99
2017-08-17T12:36:44.288Z,32.32
2017-08-17T12:39:15.365Z,30.40
2017-08-17T12:41:48.547Z,27.59
2017-08-17T12:44:20.797Z,23.13
2017-08-17T12:46:52.064Z,20.59
2017-08-17T12:49:23.662Z,19.43
2017-08-17T12:51:55.572Z,19.98
2017-08-17T12:54:26.988Z,18.91
2017-08-17T12:57:07.770Z,19.96
2017-08-17T12:59:39.040Z,25.38
2017-08-17T13:02:12.022Z,26.65
2017-08-17T13:04:43.625Z,24.29
2017-08-17T13:07:15.302Z,24.33
2017-08-17T13:09:46.619Z,22.19
2017-08-17T13:12:19.656Z,19.87
2017-08-17T13:14:51.985Z,23.05
2017-08-17T13:20:35.973Z,25.93
2017-08-17T13:23:10.503Z,26.07
2017-08-17T13:25:42.041Z,26.29
2017-08-17T13:28:13.776Z,24.20
2017-08-17T13:30:47.936Z,23.45
2017-08-17T13:33:19.202Z,20.14
2017-08-17T13:35:51.030Z,19.58
2017-08-17T13:38:28.211Z,19.04
